Time;durP1;ratioP1;P1;durP2;ratioP2;P2;SDS_P1;SDS_P2;PMS_P1;PMS_P2;Temp;Humidity;BMP_temperature;BMP_pressure;BME280_temperature;BME280_humidity;BME280_pressure;Samples;Min_cycle;Max_cycle;Signal;HPM_P1;HPM_P2
2023/05/19 00:01:23;;;;;;;2.05;1.52;;;14.00;99.90;;;;;;6092560;23;20385;-81
2023/05/19 00:03:53;;;;;;;1.50;1.20;;;14.00;99.90;;;;;;6091970;23;20856;-81
2023/05/19 00:06:25;;;;;;;1.10;1.00;;;14.00;99.90;;;;;;6094045;23;20437;-81
2023/05/19 00:09:03;;;;;;;1.00;0.90;;;14.00;99.90;;;;;;6090064;23;20409;-81
2023/05/19 00:11:31;;;;;;;3.00;1.33;;;14.00;99.90;;;;;;6092739;23;20739;-80
2023/05/19 00:13:59;;;;;;;1.65;1.48;;;14.00;99.90;;;;;;6092839;23;20430;-81
2023/05/19 00:16:27;;;;;;;1.70;1.33;;;14.00;99.90;;;;;;6092620;23;20386;-81
2023/05/19 00:18:57;;;;;;;2.95;1.40;;;14.00;99.90;;;;;;6091117;23;20448;-81
2023/05/19 00:21:24;;;;;;;1.20;1.10;;;14.00;99.90;;;;;;6092549;23;20685;-81
2023/05/19 00:23:51;;;;;;;2.40;1.25;;;14.00;99.90;;;;;;6091396;23;20385;-81
2023/05/19 00:26:18;;;;;;;1.50;1.15;;;14.00;99.90;;;;;;6093055;23;20385;-80
2023/05/19 00:28:44;;;;;;;1.40;1.30;;;14.00;99.90;;;;;;6091187;23;20377;-81
2023/05/19 00:31:11;;;;;;;1.02;0.93;;;14.00;99.90;;;;;;6093745;23;20428;-81
2023/05/19 00:33:38;;;;;;;2.55;1.25;;;14.00;99.90;;;;;;6091901;23;20385;-80
2023/05/19 00:36:06;;;;;;;0.90;0.90;;;14.00;99.90;;;;;;6092114;23;20381;-81
2023/05/19 00:38:34;;;;;;;1.10;1.00;;;14.00;99.90;;;;;;6092149;23;20686;-81
2023/05/19 00:41:02;;;;;;;1.70;0.95;;;14.00;99.90;;;;;;6091444;23;20377;-81
2023/05/19 00:43:29;;;;;;;1.50;1.40;;;14.00;99.90;;;;;;6092667;23;20385;-81
2023/05/19 00:45:57;;;;;;;1.20;0.90;;;14.00;99.90;;;;;;6091097;23;20377;-81
2023/05/19 00:48:24;;;;;;;3.08;1.70;;;14.00;99.90;;;;;;6091897;23;20376;-80
2023/05/19 00:50:54;;;;;;;2.73;2.53;;;14.00;99.90;;;;;;6066875;23;20397;-81
2023/05/19 00:53:23;;;;;;;4.47;3.53;;;14.00;99.90;;;;;;6092285;23;20379;-80
2023/05/19 00:55:50;;;;;;;3.50;3.20;;;14.00;99.90;;;;;;6091444;23;20416;-80
2023/05/19 00:58:17;;;;;;;4.82;4.03;;;13.90;99.90;;;;;;6091813;23;20381;-80
2023/05/19 01:00:45;;;;;;;4.13;3.67;;;13.90;99.90;;;;;;6091447;23;20394;-81
2023/05/19 06:08:17;;;;;;;3.00;1.60;;;13.10;99.90;;;;;;6078971;23;20364;-85
2023/05/19 06:10:44;;;;;;;2.30;1.40;;;13.10;99.90;;;;;;6150026;23;20743;-86
2023/05/19 06:13:16;;;;;;;2.08;1.50;;;13.10;99.90;;;;;;6119834;23;20403;-87
2023/05/19 06:15:43;;;;;;;1.48;1.27;;;13.10;99.90;;;;;;6124147;23;20375;-85
2023/05/19 06:18:10;;;;;;;3.30;1.90;;;13.10;99.90;;;;;;6129585;23;20375;-85
2023/05/19 06:20:37;;;;;;;3.15;1.60;;;13.10;99.90;;;;;;6129221;23;20376;-85
2023/05/19 06:23:04;;;;;;;1.25;1.15;;;13.10;99.90;;;;;;6129347;23;20376;-85
2023/05/19 06:25:31;;;;;;;2.25;1.80;;;13.10;99.90;;;;;;6128726;23;20372;-85
2023/05/19 06:27:58;;;;;;;2.67;1.40;;;13.10;99.90;;;;;;6129975;23;20375;-86
2023/05/19 06:30:25;;;;;;;1.65;1.42;;;13.10;99.90;;;;;;6125680;23;20386;-86
2023/05/19 06:32:52;;;;;;;1.92;1.35;;;13.10;99.90;;;;;;6130715;23;20379;-86
2023/05/19 06:35:19;;;;;;;1.73;1.15;;;13.10;99.90;;;;;;6130568;23;20431;-85
2023/05/19 06:37:46;;;;;;;1.38;1.20;;;13.10;99.90;;;;;;6127334;23;20687;-87
2023/05/19 06:40:13;;;;;;;2.28;1.27;;;13.10;99.90;;;;;;6128017;23;20378;-88
2023/05/19 06:42:39;;;;;;;1.40;1.30;;;13.10;99.90;;;;;;6136712;23;20390;-87
2023/05/19 06:45:07;;;;;;;1.98;1.77;;;13.10;99.90;;;;;;6131410;23;20380;-88
2023/05/19 06:47:34;;;;;;;3.65;1.50;;;13.10;99.90;;;;;;6130650;23;20375;-88
2023/05/19 06:50:01;;;;;;;1.00;0.80;;;13.00;99.90;;;;;;6134458;23;20754;-88
2023/05/19 06:52:28;;;;;;;1.50;0.50;;;13.00;99.90;;;;;;6133722;23;21282;-88
2023/05/19 06:54:55;;;;;;;1.23;0.50;;;12.90;99.90;;;;;;6127098;23;20380;-84
2023/05/19 06:57:22;;;;;;;0.70;0.40;;;13.00;99.90;;;;;;6129694;23;20395;-86
2023/05/19 06:59:49;;;;;;;1.33;0.65;;;13.00;99.90;;;;;;6130703;23;20379;-86
2023/05/19 07:02:15;;;;;;;0.60;0.45;;;13.00;99.90;;;;;;6132267;23;20853;-86
2023/05/19 07:04:43;;;;;;;1.40;0.50;;;13.00;99.90;;;;;;6135748;23;20419;-87
2023/05/19 07:07:09;;;;;;;0.80;0.50;;;13.10;99.90;;;;;;6135962;23;20442;-87
2023/05/19 07:09:36;;;;;;;0.53;0.43;;;13.10;99.90;;;;;;6154504;23;20482;-86
2023/05/19 07:12:03;;;;;;;1.00;0.50;;;13.10;99.90;;;;;;6136257;23;20378;-86
2023/05/19 07:14:30;;;;;;;1.73;0.70;;;13.20;99.90;;;;;;6138860;23;20914;-85
2023/05/19 07:16:57;;;;;;;2.15;0.77;;;13.20;99.90;;;;;;6136177;23;20386;-86
2023/05/19 07:19:24;;;;;;;1.00;0.70;;;13.10;99.90;;;;;;6136180;23;20373;-87
2023/05/19 07:21:51;;;;;;;2.95;0.77;;;13.10;99.90;;;;;;6140304;23;20370;-87
2023/05/19 07:24:20;;;;;;;1.70;0.90;;;13.10;99.90;;;;;;6142311;23;20401;-87
2023/05/19 07:26:47;;;;;;;1.88;0.70;;;13.10;99.90;;;;;;6142646;23;20437;-85
2023/05/19 07:29:13;;;;;;;1.55;0.82;;;13.00;99.90;;;;;;6166973;23;20371;-87
2023/05/19 07:31:40;;;;;;;1.23;0.50;;;13.00;99.90;;;;;;6140349;23;20759;-88
2023/05/19 07:34:07;;;;;;;0.88;0.70;;;13.00;99.90;;;;;;6142030;23;20374;-84
2023/05/19 07:36:34;;;;;;;1.27;0.53;;;13.10;99.90;;;;;;6138476;23;20449;-86
2023/05/19 07:39:02;;;;;;;1.40;0.70;;;13.10;99.90;;;;;;6139182;23;20417;-86
2023/05/19 07:41:29;;;;;;;1.15;0.90;;;13.10;99.90;;;;;;6141738;23;20370;-87
2023/05/19 07:43:55;;;;;;;3.00;0.93;;;13.20;99.90;;;;;;6137926;23;20521;-86
2023/05/19 07:46:22;;;;;;;2.17;0.80;;;13.10;99.90;;;;;;6134107;23;20378;-87
2023/05/19 07:48:49;;;;;;;1.50;0.90;;;13.10;99.90;;;;;;6137536;23;20724;-87
2023/05/19 07:51:18;;;;;;;1.67;1.10;;;13.10;99.90;;;;;;6138164;23;20911;-87
2023/05/19 07:53:45;;;;;;;2.15;0.90;;;13.10;99.90;;;;;;6136868;23;20409;-88
2023/05/19 07:56:12;;;;;;;2.00;1.00;;;13.10;99.90;;;;;;6132936;23;20374;-87
2023/05/19 07:58:39;;;;;;;1.05;0.90;;;13.10;99.90;;;;;;6135569;23;20433;-87
2023/05/19 08:01:06;;;;;;;0.83;0.70;;;13.10;99.90;;;;;;6159212;23;20385;-89
2023/05/19 08:03:33;;;;;;;2.08;1.05;;;13.10;99.90;;;;;;6127183;23;20382;-88
2023/05/19 08:06:01;;;;;;;1.13;0.80;;;13.10;99.90;;;;;;6129021;23;20378;-87
2023/05/19 08:08:28;;;;;;;1.65;0.60;;;13.10;99.90;;;;;;6159064;23;20380;-88
2023/05/19 08:10:55;;;;;;;3.17;0.73;;;13.20;99.90;;;;;;6130545;23;20386;-87
2023/05/19 08:13:22;;;;;;;1.50;0.75;;;13.20;99.90;;;;;;6127882;23;20432;-88
2023/05/19 08:15:48;;;;;;;1.83;0.70;;;13.20;99.90;;;;;;6134269;23;20409;-88
2023/05/19 08:18:15;;;;;;;0.43;0.40;;;13.20;99.90;;;;;;6131734;23;20374;-88
2023/05/19 08:20:42;;;;;;;0.90;0.52;;;13.20;99.90;;;;;;6127890;23;20391;-87
2023/05/19 08:23:09;;;;;;;1.00;0.60;;;13.20;99.90;;;;;;6128331;23;20384;-88
2023/05/19 08:25:39;;;;;;;2.40;1.30;;;13.30;99.90;;;;;;6130843;23;20740;-88
2023/05/19 08:28:06;;;;;;;1.40;0.90;;;13.20;99.90;;;;;;6128425;23;20375;-88
2023/05/19 08:30:33;;;;;;;1.60;0.80;;;13.30;99.90;;;;;;6135647;23;20687;-90
2023/05/19 08:33:00;;;;;;;1.88;1.05;;;13.30;99.90;;;;;;6135067;23;20428;-88
2023/05/19 08:35:28;;;;;;;0.80;0.68;;;13.30;99.90;;;;;;6131621;23;20382;-89
2023/05/19 08:37:55;;;;;;;1.13;0.70;;;13.40;99.90;;;;;;6131841;23;20389;-88
2023/05/19 08:40:22;;;;;;;1.00;0.90;;;13.40;99.90;;;;;;6129336;23;20378;-88
2023/05/19 08:42:49;;;;;;;1.50;0.80;;;13.40;99.90;;;;;;6162807;23;20437;-88
2023/05/19 08:45:16;;;;;;;2.72;0.60;;;13.40;99.90;;;;;;6137835;23;20381;-87
2023/05/19 08:47:45;;;;;;;1.13;0.63;;;13.50;99.90;;;;;;6158799;23;20405;-87
2023/05/19 08:50:18;;;;;;;1.20;0.57;;;13.50;99.90;;;;;;6163309;23;20374;-87
2023/05/19 08:53:00;;;;;;;1.00;0.60;;;13.50;99.90;;;;;;6157415;23;21865;-88
2023/05/19 08:55:35;;;;;;;1.30;0.40;;;13.50;99.90;;;;;;6126982;23;20868;-87
2023/05/19 08:58:03;;;;;;;0.65;0.40;;;13.40;99.90;;;;;;6160143;23;20393;-87
2023/05/19 09:00:31;;;;;;;0.82;0.50;;;13.50;99.90;;;;;;6156175;23;20382;-87
2023/05/19 09:03:00;;;;;;;1.30;0.40;;;13.40;99.90;;;;;;6157200;23;20370;-88
2023/05/19 09:05:32;;;;;;;0.98;0.52;;;13.40;99.90;;;;;;6162964;23;20382;-86
2023/05/19 09:08:01;;;;;;;0.50;0.32;;;13.40;99.90;;;;;;6140655;23;20393;-88
2023/05/19 09:10:28;;;;;;;0.70;0.30;;;13.40;99.90;;;;;;6139482;23;20382;-88
2023/05/19 09:12:55;;;;;;;0.65;0.30;;;13.40;99.90;;;;;;6136855;23;20377;-89
2023/05/19 09:15:26;;;;;;;0.67;0.40;;;13.40;99.90;;;;;;6131523;23;20741;-88
2023/05/19 09:18:10;;;;;;;1.80;0.77;;;13.40;99.90;;;;;;6134736;23;20378;-90
2023/05/19 09:20:42;;;;;;;2.50;0.80;;;13.40;99.90;;;;;;6156983;23;20689;-88
2023/05/19 09:23:14;;;;;;;1.17;0.60;;;13.40;99.90;;;;;;6163010;23;20381;-88
2023/05/19 09:25:52;;;;;;;2.40;1.27;;;13.40;99.90;;;;;;6162421;23;20385;-88
2023/05/19 09:28:23;;;;;;;3.20;1.20;;;13.40;99.90;;;;;;6163401;23;20370;-88
2023/05/19 09:31:09;;;;;;;1.75;0.80;;;13.30;99.90;;;;;;6139263;23;20372;-87
2023/05/19 09:33:41;;;;;;;1.40;0.30;;;13.30;99.90;;;;;;6159604;23;20398;-87
2023/05/19 09:36:12;;;;;;;1.23;0.40;;;13.30;99.90;;;;;;6162390;23;20374;-87
2023/05/19 09:38:40;;;;;;;1.05;0.50;;;13.30;99.90;;;;;;6161951;23;20768;-87
2023/05/19 09:41:07;;;;;;;1.40;0.60;;;13.30;99.90;;;;;;6136498;23;20378;-87
2023/05/19 09:43:35;;;;;;;1.30;0.90;;;13.30;99.90;;;;;;6136293;23;20879;-87
2023/05/19 09:46:07;;;;;;;2.55;1.02;;;13.40;99.90;;;;;;6131269;23;20429;-85
2023/05/19 09:48:36;;;;;;;1.40;0.70;;;13.40;99.90;;;;;;6159847;23;20378;-85
2023/05/19 09:51:06;;;;;;;1.23;0.63;;;13.40;99.90;;;;;;6136232;23;20405;-86
2023/05/19 09:53:34;;;;;;;1.15;0.63;;;13.40;99.90;;;;;;6162243;23;20380;-86
2023/05/19 09:56:16;;;;;;;0.60;0.40;;;13.40;99.90;;;;;;6142437;23;20769;-85
2023/05/19 09:58:44;;;;;;;1.00;0.40;;;13.40;99.90;;;;;;6163091;23;20388;-86
2023/05/19 10:01:21;;;;;;;0.97;0.30;;;13.40;99.90;;;;;;6160032;23;20381;-86
2023/05/19 10:03:51;;;;;;;1.27;0.52;;;13.50;99.90;;;;;;6136159;23;20425;-87
2023/05/19 10:06:19;;;;;;;1.70;0.50;;;13.40;99.90;;;;;;6165959;23;20376;-87
2023/05/19 10:08:49;;;;;;;1.42;0.40;;;13.50;99.90;;;;;;6167829;23;20406;-86
2023/05/19 10:11:16;;;;;;;0.77;0.40;;;13.40;99.90;;;;;;6166218;23;20370;-86
2023/05/19 10:13:46;;;;;;;0.82;0.47;;;13.30;99.90;;;;;;6165547;23;20756;-86
2023/05/19 10:16:15;;;;;;;1.65;0.40;;;13.30;99.90;;;;;;6164207;23;20370;-84
2023/05/19 10:18:42;;;;;;;0.45;0.30;;;13.20;99.90;;;;;;6158336;23;20389;-86
2023/05/19 10:21:11;;;;;;;0.90;0.50;;;13.20;99.90;;;;;;6158041;23;20374;-86
2023/05/19 10:23:37;;;;;;;1.50;0.60;;;13.20;99.90;;;;;;6163318;23;20381;-86
2023/05/19 10:26:06;;;;;;;0.93;0.40;;;13.20;99.90;;;;;;6138737;23;20377;-85
2023/05/19 10:28:42;;;;;;;0.77;0.30;;;13.20;99.90;;;;;;6139271;23;20374;-85
2023/05/19 10:31:14;;;;;;;0.82;0.20;;;13.20;99.90;;;;;;6159939;23;20377;-86
2023/05/19 10:34:17;;;;;;;0.40;0.20;;;13.20;99.90;;;;;;6156527;23;20405;-86
2023/05/19 10:36:51;;;;;;;0.38;0.20;;;13.20;99.90;;;;;;6134822;23;20445;-85
2023/05/19 10:39:34;;;;;;;0.20;0.20;;;13.30;99.90;;;;;;6163124;23;20382;-84
2023/05/19 10:42:26;;;;;;;0.80;0.20;;;13.30;99.90;;;;;;6135351;23;20366;-85
2023/05/19 10:45:12;;;;;;;0.80;0.22;;;13.30;99.90;;;;;;6165633;23;20386;-85
2023/05/19 10:47:42;;;;;;;1.17;0.30;;;13.30;99.90;;;;;;6163116;23;20769;-84
2023/05/19 10:50:09;;;;;;;1.48;0.50;;;13.30;99.90;;;;;;6164881;23;20390;-85
2023/05/19 10:52:38;;;;;;;1.67;0.60;;;13.30;99.90;;;;;;6141418;23;20380;-85
2023/05/19 10:55:16;;;;;;;0.73;0.40;;;13.30;99.90;;;;;;6139697;23;20396;-85
2023/05/19 10:57:59;;;;;;;0.50;0.30;;;13.30;99.90;;;;;;6112261;23;20378;-85
2023/05/19 11:00:27;;;;;;;0.80;0.40;;;13.30;99.90;;;;;;6109988;23;20377;-85
2023/05/19 11:03:14;;;;;;;0.57;0.40;;;13.30;99.90;;;;;;6155590;23;20704;-86
2023/05/19 11:05:44;;;;;;;0.73;0.50;;;13.30;99.90;;;;;;6153670;23;20378;-86
2023/05/19 11:08:12;;;;;;;1.13;0.60;;;13.30;99.90;;;;;;6130609;23;20433;-86
2023/05/19 11:10:42;;;;;;;1.10;0.88;;;13.30;99.90;;;;;;6132637;23;20378;-86
2023/05/19 11:13:18;;;;;;;1.30;0.60;;;13.40;99.90;;;;;;6154441;23;20355;-86
2023/05/19 11:15:45;;;;;;;2.55;1.00;;;13.40;99.90;;;;;;6156764;23;20385;-85
2023/05/19 11:18:14;;;;;;;0.82;0.50;;;13.40;99.90;;;;;;6129162;23;20389;-85
2023/05/19 11:20:43;;;;;;;1.00;0.60;;;13.40;99.90;;;;;;6134021;23;20380;-86
2023/05/19 11:23:17;;;;;;;1.00;0.50;;;13.40;99.90;;;;;;6129932;23;20393;-85
2023/05/19 11:25:53;;;;;;;0.77;0.60;;;13.50;99.90;;;;;;6154867;23;20374;-86
2023/05/19 11:28:26;;;;;;;0.38;0.30;;;13.50;99.90;;;;;;6155375;23;20432;-86
2023/05/19 11:30:56;;;;;;;1.00;0.40;;;13.60;99.90;;;;;;6157282;23;20382;-86
2023/05/19 11:33:26;;;;;;;0.52;0.40;;;13.60;99.90;;;;;;6132958;23;20378;-86
2023/05/19 11:35:57;;;;;;;0.50;0.22;;;13.60;99.90;;;;;;6160289;23;20373;-86
2023/05/19 11:38:25;;;;;;;0.40;0.30;;;13.60;99.90;;;;;;6135932;23;20451;-86
2023/05/19 11:40:53;;;;;;;1.05;0.47;;;13.70;99.90;;;;;;6160556;23;20389;-86
2023/05/19 11:43:24;;;;;;;1.13;0.30;;;13.70;99.90;;;;;;6156316;23;20432;-86
2023/05/19 11:45:53;;;;;;;1.15;0.20;;;13.70;99.90;;;;;;6157349;23;20406;-86
2023/05/19 11:48:21;;;;;;;0.30;0.25;;;13.80;99.90;;;;;;6154250;23;20386;-86
2023/05/19 11:50:49;;;;;;;1.50;0.40;;;13.80;99.90;;;;;;6156467;23;20374;-86
2023/05/19 11:53:18;;;;;;;0.40;0.20;;;13.80;99.90;;;;;;6155720;23;20760;-86
2023/05/19 11:55:46;;;;;;;0.37;0.30;;;13.80;99.90;;;;;;6156008;23;20399;-85
2023/05/19 11:58:14;;;;;;;0.50;0.20;;;13.80;99.90;;;;;;6156342;23;20410;-86
2023/05/19 12:00:44;;;;;;;0.32;0.20;;;13.90;99.90;;;;;;6129175;23;20446;-86
2023/05/19 12:03:12;;;;;;;0.20;0.20;;;13.90;99.90;;;;;;6155024;23;20374;-86
2023/05/19 12:05:44;;;;;;;0.45;0.20;;;14.00;99.90;;;;;;6131131;23;20708;-87
2023/05/19 12:08:12;;;;;;;0.20;0.20;;;14.00;99.90;;;;;;6151915;23;20446;-86
2023/05/19 12:10:39;;;;;;;0.50;0.25;;;14.10;99.90;;;;;;6127161;23;20432;-87
2023/05/19 12:13:08;;;;;;;0.93;0.50;;;14.20;99.90;;;;;;6151470;23;20374;-87
2023/05/19 12:15:36;;;;;;;0.70;0.65;;;14.20;99.90;;;;;;6127780;23;20445;-88
2023/05/19 12:18:03;;;;;;;1.63;1.30;;;14.30;99.90;;;;;;6152581;23;20429;-86
2023/05/19 12:20:34;;;;;;;1.55;1.02;;;14.30;99.90;;;;;;6128867;23;20362;-87
2023/05/19 12:23:01;;;;;;;1.48;0.98;;;14.30;99.90;;;;;;6152493;23;20458;-86
2023/05/19 12:25:29;;;;;;;2.40;1.00;;;14.30;99.90;;;;;;6128413;23;20365;-86
2023/05/19 12:27:59;;;;;;;1.20;0.93;;;14.30;99.90;;;;;;6155895;23;20378;-87
2023/05/19 12:30:29;;;;;;;2.33;0.93;;;14.30;99.90;;;;;;6156245;23;20446;-87
2023/05/19 12:32:57;;;;;;;1.20;0.80;;;14.40;99.90;;;;;;6160291;23;20457;-88
2023/05/19 12:35:30;;;;;;;0.95;0.63;;;14.40;99.90;;;;;;6132204;23;20382;-88
2023/05/19 12:38:02;;;;;;;0.82;0.50;;;14.50;99.90;;;;;;6157451;23;20457;-88
2023/05/19 12:40:29;;;;;;;0.83;0.50;;;14.50;99.90;;;;;;6159261;23;20506;-86
2023/05/19 12:42:57;;;;;;;1.05;0.57;;;14.50;99.90;;;;;;6131434;23;20409;-86
2023/05/19 12:45:27;;;;;;;0.30;0.30;;;14.50;99.90;;;;;;6131339;23;22689;-86
2023/05/19 12:47:54;;;;;;;0.80;0.53;;;14.50;99.90;;;;;;6157620;23;20370;-86
2023/05/19 12:50:29;;;;;;;0.80;0.50;;;14.60;99.90;;;;;;6133723;23;20704;-85
2023/05/19 12:52:58;;;;;;;0.93;0.40;;;14.60;99.90;;;;;;6156832;23;20372;-84
2023/05/19 12:55:25;;;;;;;1.40;0.65;;;14.60;99.90;;;;;;6130373;23;20370;-86
2023/05/19 12:57:56;;;;;;;0.80;0.60;;;14.60;99.90;;;;;;6135083;23;20386;-85
2023/05/19 13:00:26;;;;;;;0.85;0.60;;;14.60;99.90;;;;;;6156444;23;20397;-86
2023/05/19 13:03:03;;;;;;;1.30;0.90;;;14.60;99.90;;;;;;6130499;23;20382;-85
2023/05/19 13:05:33;;;;;;;1.10;0.90;;;14.60;99.90;;;;;;6161643;23;20370;-86
2023/05/19 13:08:04;;;;;;;0.90;0.80;;;14.60;99.90;;;;;;6162939;23;20378;-85
2023/05/19 13:10:33;;;;;;;1.20;1.00;;;14.60;99.90;;;;;;6159392;23;20367;-85
2023/05/19 13:13:01;;;;;;;1.00;0.90;;;14.60;99.90;;;;;;6134309;23;20378;-86
2023/05/19 13:15:33;;;;;;;0.70;0.60;;;14.50;99.90;;;;;;6164211;23;20375;-84
2023/05/19 13:18:02;;;;;;;0.50;0.50;;;14.50;99.90;;;;;;6157299;23;20378;-83
2023/05/19 13:20:29;;;;;;;1.07;0.80;;;14.50;99.90;;;;;;6131482;23;20370;-86
2023/05/19 13:22:56;;;;;;;2.08;1.10;;;14.50;99.90;;;;;;6128635;23;20374;-85
2023/05/19 13:25:23;;;;;;;1.48;1.00;;;14.50;99.90;;;;;;6125283;23;20382;-85
2023/05/19 13:27:51;;;;;;;0.80;0.50;;;14.50;99.90;;;;;;6125785;23;20461;-85
2023/05/19 13:30:18;;;;;;;0.90;0.30;;;14.40;99.90;;;;;;6124239;23;20378;-84
2023/05/19 13:32:45;;;;;;;0.60;0.20;;;14.40;99.90;;;;;;6125787;23;20382;-84
2023/05/19 13:35:13;;;;;;;1.00;0.30;;;14.40;99.90;;;;;;6149880;23;20709;-84
2023/05/19 13:37:41;;;;;;;0.50;0.40;;;14.40;99.90;;;;;;6152930;23;20740;-85
2023/05/19 13:40:09;;;;;;;0.70;0.40;;;14.40;99.90;;;;;;6152668;23;20454;-85
2023/05/19 13:42:36;;;;;;;0.40;0.30;;;14.40;99.90;;;;;;6156674;23;20366;-85
2023/05/19 13:45:04;;;;;;;0.60;0.40;;;14.40;99.90;;;;;;6132780;23;20386;-87
2023/05/19 13:47:31;;;;;;;0.20;0.20;;;14.40;99.90;;;;;;6153478;23;20401;-83
2023/05/19 13:49:58;;;;;;;0.80;0.40;;;14.40;99.90;;;;;;6129175;23;20465;-83
2023/05/19 13:52:25;;;;;;;1.60;1.50;;;14.40;99.90;;;;;;6130839;23;20389;-84
2023/05/19 13:54:56;;;;;;;1.00;0.90;;;14.40;99.90;;;;;;6129715;23;20445;-84
2023/05/19 13:57:24;;;;;;;0.60;0.60;;;14.40;99.90;;;;;;6152951;23;20421;-85
2023/05/19 13:59:53;;;;;;;0.90;0.50;;;14.40;99.90;;;;;;6129912;23;20712;-85
2023/05/19 14:02:29;;;;;;;1.08;0.60;;;14.40;99.90;;;;;;6154257;23;21220;-85
2023/05/19 14:04:56;;;;;;;0.65;0.40;;;14.40;99.90;;;;;;6129851;23;20374;-84
2023/05/19 14:07:24;;;;;;;0.90;0.60;;;14.40;99.90;;;;;;6131174;23;20437;-83
2023/05/19 14:09:51;;;;;;;1.48;0.55;;;14.40;99.90;;;;;;6153056;23;20929;-84
2023/05/19 14:12:18;;;;;;;0.80;0.50;;;14.40;99.90;;;;;;6149477;23;20382;-83
2023/05/19 14:14:51;;;;;;;0.80;0.53;;;14.40;99.90;;;;;;6130020;23;20488;-83
2023/05/19 14:17:17;;;;;;;0.60;0.40;;;14.40;99.90;;;;;;6126922;23;20449;-84
2023/05/19 14:19:44;;;;;;;1.08;0.70;;;14.40;99.90;;;;;;6128016;23;20378;-84
2023/05/19 14:22:12;;;;;;;0.93;0.60;;;14.50;99.90;;;;;;6128645;23;20369;-85
2023/05/19 14:24:40;;;;;;;1.15;0.52;;;14.50;99.90;;;;;;6127622;23;20362;-84
2023/05/19 14:27:07;;;;;;;1.85;0.70;;;14.50;99.90;;;;;;6128133;23;20466;-84
2023/05/19 14:29:34;;;;;;;1.80;0.90;;;14.50;99.90;;;;;;6127679;23;20374;-84
2023/05/19 14:32:01;;;;;;;1.27;1.10;;;14.50;99.90;;;;;;6128420;23;20417;-84
2023/05/19 14:34:29;;;;;;;0.82;0.77;;;14.40;99.90;;;;;;6127868;23;20420;-87
2023/05/19 14:36:56;;;;;;;0.77;0.70;;;14.40;99.90;;;;;;6128466;23;20378;-85
2023/05/19 14:39:23;;;;;;;1.37;1.07;;;14.40;99.90;;;;;;6128177;23;20378;-84
2023/05/19 14:41:51;;;;;;;1.17;0.80;;;14.40;99.90;;;;;;6128236;23;20724;-84
2023/05/19 14:44:18;;;;;;;1.05;0.95;;;14.30;99.90;;;;;;6127545;23;20902;-84
2023/05/19 14:46:45;;;;;;;1.25;1.00;;;14.30;99.90;;;;;;6153588;23;20370;-84
2023/05/19 14:49:12;;;;;;;1.70;1.10;;;14.30;99.90;;;;;;6128078;23;20385;-84
2023/05/19 14:51:39;;;;;;;1.35;1.17;;;14.30;99.90;;;;;;6127974;23;20369;-84
2023/05/19 14:54:06;;;;;;;1.20;1.10;;;14.30;99.90;;;;;;6129125;23;20370;-84
2023/05/19 14:56:33;;;;;;;1.48;1.00;;;14.30;99.90;;;;;;6130401;23;20378;-84
2023/05/19 14:59:00;;;;;;;2.17;1.65;;;14.30;99.90;;;;;;6129299;23;20393;-85
2023/05/19 15:01:27;;;;;;;2.50;1.98;;;14.30;99.90;;;;;;6131008;23;20370;-83
2023/05/19 15:03:54;;;;;;;1.87;1.50;;;14.30;99.90;;;;;;6133065;23;20384;-84
2023/05/19 15:06:21;;;;;;;1.83;1.42;;;14.20;99.90;;;;;;6128193;23;20381;-85
2023/05/19 15:08:48;;;;;;;2.60;2.38;;;14.20;99.90;;;;;;6131901;23;20370;-85
2023/05/19 15:11:15;;;;;;;2.40;2.13;;;14.30;99.90;;;;;;6133999;23;20377;-86
2023/05/19 15:13:42;;;;;;;2.97;2.35;;;14.30;99.90;;;;;;6129010;23;20370;-85
2023/05/19 15:16:09;;;;;;;2.42;1.92;;;14.30;99.90;;;;;;6130384;23;20405;-85
2023/05/19 15:18:44;;;;;;;2.30;2.10;;;14.30;99.90;;;;;;6130044;23;20405;-85
2023/05/19 15:21:11;;;;;;;4.13;2.78;;;14.30;99.90;;;;;;6130770;23;20678;-86
2023/05/19 15:23:38;;;;;;;3.45;3.10;;;14.30;99.90;;;;;;6128726;23;20397;-85
2023/05/19 15:26:06;;;;;;;2.67;2.47;;;14.20;99.90;;;;;;6129666;23;20401;-85
2023/05/19 15:28:33;;;;;;;3.78;2.97;;;14.20;99.90;;;;;;6127355;23;20393;-86
2023/05/19 15:31:00;;;;;;;3.70;3.40;;;14.20;99.90;;;;;;6128452;23;20366;-85
2023/05/19 15:33:27;;;;;;;3.13;2.83;;;14.20;99.90;;;;;;6130530;23;20370;-85
2023/05/19 15:35:54;;;;;;;3.10;2.80;;;14.20;99.90;;;;;;6134145;23;20450;-85
2023/05/19 15:38:20;;;;;;;4.23;3.67;;;14.20;99.90;;;;;;6135839;23;20382;-85
2023/05/19 15:40:47;;;;;;;3.50;3.10;;;14.20;99.90;;;;;;6135454;23;20374;-86
2023/05/19 15:43:14;;;;;;;4.07;3.67;;;14.10;99.90;;;;;;6134407;23;20374;-85
2023/05/19 15:45:41;;;;;;;2.95;2.75;;;14.10;99.90;;;;;;6130152;23;20756;-85
2023/05/19 15:48:08;;;;;;;3.50;3.20;;;14.10;99.90;;;;;;6130036;23;20385;-85
2023/05/19 15:50:35;;;;;;;3.63;3.10;;;14.10;99.90;;;;;;6131716;23;20397;-85
2023/05/19 15:53:02;;;;;;;3.08;2.88;;;14.10;99.90;;;;;;6131343;23;20379;-85
2023/05/19 15:55:29;;;;;;;2.80;2.55;;;14.10;99.90;;;;;;6153783;23;20880;-86
2023/05/19 15:57:56;;;;;;;3.87;3.20;;;14.10;99.90;;;;;;6128798;23;20381;-85
2023/05/19 16:00:23;;;;;;;2.42;2.10;;;14.10;99.90;;;;;;6129598;23;20381;-85
2023/05/19 16:02:50;;;;;;;2.40;2.20;;;14.20;99.90;;;;;;6127294;23;20393;-86
2023/05/19 16:05:17;;;;;;;2.60;2.40;;;14.20;99.90;;;;;;6153157;23;20389;-86
2023/05/19 16:07:44;;;;;;;2.35;2.00;;;14.20;99.90;;;;;;6129772;23;20370;-86
2023/05/19 16:10:11;;;;;;;2.08;1.80;;;14.20;99.90;;;;;;6123256;23;20750;-86
2023/05/19 16:12:38;;;;;;;2.50;2.20;;;14.20;99.90;;;;;;6122566;23;20399;-86
2023/05/19 16:15:05;;;;;;;1.83;1.73;;;14.30;99.90;;;;;;6123571;23;20384;-85
2023/05/19 16:17:33;;;;;;;1.92;1.80;;;14.20;99.90;;;;;;6124553;23;20375;-86
2023/05/19 16:20:03;;;;;;;3.17;2.80;;;14.20;99.90;;;;;;6128322;23;20475;-88
2023/05/19 16:22:29;;;;;;;4.40;3.47;;;14.20;99.90;;;;;;6126511;23;20376;-84
2023/05/19 16:24:57;;;;;;;4.63;3.78;;;14.20;99.90;;;;;;6133040;23;20459;-87
2023/05/19 16:27:23;;;;;;;4.65;3.83;;;14.20;99.90;;;;;;6125337;23;20380;-86
2023/05/19 16:29:50;;;;;;;3.83;3.00;;;14.10;99.90;;;;;;6123705;23;20372;-87
2023/05/19 16:32:17;;;;;;;3.13;2.88;;;14.10;99.90;;;;;;6128776;23;20376;-87
2023/05/19 16:34:44;;;;;;;2.38;2.13;;;14.10;99.90;;;;;;6122160;23;20702;-86
2023/05/19 16:37:11;;;;;;;2.38;2.10;;;14.10;99.90;;;;;;6126953;23;20384;-86
2023/05/19 16:39:39;;;;;;;2.53;2.10;;;14.10;99.90;;;;;;6124562;23;20386;-85
2023/05/19 16:42:06;;;;;;;2.65;2.40;;;14.20;99.90;;;;;;6125371;23;20368;-87
2023/05/19 16:44:33;;;;;;;1.55;1.45;;;14.10;99.90;;;;;;6125522;23;20758;-86
2023/05/19 16:46:59;;;;;;;2.17;1.92;;;14.20;99.90;;;;;;6129284;23;20378;-86
2023/05/19 16:49:26;;;;;;;2.15;1.95;;;14.20;99.90;;;;;;6128816;23;20450;-85
2023/05/19 16:51:54;;;;;;;2.53;2.33;;;14.20;99.90;;;;;;6128184;23;20380;-86
2023/05/19 16:54:22;;;;;;;2.63;2.42;;;14.10;99.90;;;;;;6131438;23;20379;-86
2023/05/19 16:56:49;;;;;;;2.88;2.63;;;14.10;99.90;;;;;;6132675;23;20371;-86
2023/05/19 16:59:16;;;;;;;3.70;3.40;;;14.10;99.90;;;;;;6132567;23;20691;-86
2023/05/19 17:01:43;;;;;;;4.45;3.72;;;14.10;99.90;;;;;;6133208;23;20375;-86
2023/05/19 17:04:10;;;;;;;4.45;4.05;;;14.10;99.90;;;;;;6129555;23;20426;-85
2023/05/19 17:06:37;;;;;;;4.25;3.85;;;14.00;99.90;;;;;;6121247;23;20368;-83
2023/05/19 17:09:04;;;;;;;4.03;3.33;;;14.00;99.90;;;;;;6136529;23;20369;-87
2023/05/19 17:11:31;;;;;;;2.55;2.35;;;14.00;99.90;;;;;;6127448;23;20374;-87
2023/05/19 17:13:58;;;;;;;4.00;3.60;;;14.00;99.90;;;;;;6126498;23;22550;-88
2023/05/19 17:16:25;;;;;;;5.13;4.60;;;13.90;99.90;;;;;;6131478;23;20374;-88
2023/05/19 17:18:52;;;;;;;5.00;4.30;;;13.90;99.90;;;;;;6164606;23;20713;-87
2023/05/19 17:21:19;;;;;;;3.57;3.27;;;13.90;99.90;;;;;;6139002;23;20386;-86
2023/05/19 17:23:46;;;;;;;3.53;3.22;;;13.90;99.90;;;;;;6164800;23;20401;-86
2023/05/19 17:26:14;;;;;;;3.13;2.83;;;13.90;99.90;;;;;;6141616;23;20373;-86
2023/05/19 17:28:41;;;;;;;2.65;2.45;;;13.90;99.90;;;;;;6140081;23;20907;-83
2023/05/19 17:31:10;;;;;;;2.38;2.17;;;13.90;99.90;;;;;;6140330;23;20736;-87
2023/05/19 17:33:38;;;;;;;3.58;3.28;;;13.90;99.90;;;;;;6159130;23;20380;-86
2023/05/19 17:36:06;;;;;;;6.75;6.07;;;13.90;99.90;;;;;;6155563;23;20366;-86
2023/05/19 17:38:33;;;;;;;14.33;11.20;;;13.80;99.90;;;;;;6155233;23;20445;-86
2023/05/19 17:41:08;;;;;;;10.30;8.27;;;13.80;99.90;;;;;;6129750;23;20388;-87
2023/05/19 17:43:36;;;;;;;7.05;5.65;;;13.80;99.90;;;;;;6129375;23;20373;-86
2023/05/19 17:46:03;;;;;;;5.40;4.88;;;13.70;99.90;;;;;;6152313;23;20377;-86
2023/05/19 17:48:31;;;;;;;4.53;4.10;;;13.70;99.90;;;;;;6155143;23;20374;-86
2023/05/19 17:50:58;;;;;;;4.10;3.70;;;13.70;99.90;;;;;;6151695;23;20740;-87
2023/05/19 17:53:26;;;;;;;5.32;3.90;;;13.70;99.90;;;;;;6152200;23;20853;-85
2023/05/19 17:55:58;;;;;;;3.17;2.88;;;13.70;99.90;;;;;;6125127;23;20385;-86
2023/05/19 17:58:25;;;;;;;4.22;3.45;;;13.60;99.90;;;;;;6150079;23;20382;-86